岡山グライダークラブ活動状況掲示板あなたは無料カウンター人目の訪問者です

岡山グライダークラブ
岡山市浦安南町639-1 岡南飛行場
 使用機:シャイベ式 SF25C型 ファルケ   JA2330
      ヴァレンティン式17E型 タイフーン  JA2342
 練習日:毎日曜日  クラブルーム:電話 086-265-1810
この掲示板は岡山グライダークラブの活動状況をお知らせする掲示板です。
!!!この掲示板は投稿規制をしています。!!!
クラブ関連各種情報は 岡山グライダークラブクラブルーム      を       .
  ブリーフイング情報は  岡山グライダークラブブリーフィングルーム  をご覧下さい。 .
※写真はクリックすると拡大して見ることが出来ます。
岡南飛行場へのアクセス等は 岡南飛行場管理事務所 をご覧ください。
クラブの ホームページ ができました。

 
01月06日
by OGC at 2019/1/6(日) 20:01:16 No.20190106195513  削除コメント
1024 x 768 x 37,534バイト
No.1

01月06日
本日の参加者
  会員      13名
  その他      0名


@本日の様子




METAR
RJBK 060100Z 36004KT 330V030 30KM FEW025ST BKN060SC 07/00 Q1022 A3023
RJOB 060100Z 34005KT 290V030 9999 FEW015 SCT045 BKN060 04/00 Q1022
RJOT 060100Z VRB02KT 9999 FEW020 SCT030 BKN060 06/01 Q1023
RJOA 060100Z 01007KT 340V040 9999 FEW020 BKN050 04/M02 Q1022
TAF
RJOB 052308Z 0600/0706 36007KT 9999 FEW020 BKN045
       BECMG 0700/0703 21006KT
RJOT 052308Z 0600/0706 36004KT 9999 FEW025 BKN050
       BECMG 0703/0706 27008KT
RJOA 052309Z 0600/0706 01005KT 9999 FEW020 BKN040
       BECMG 0703/0706 24005KT

今年、初めての活動日、天候は、一面の曇り空で、ほぼ真横の風が数ノット、絶好の横風着陸の訓練日和となりました。
ということで、今年の初飛びは、訓練生は横風着陸訓練、ライセンサーはサーマルソアリングなどを行い、日没までよく飛んでいました。

解散    17:22

1番機  11:20離陸 撤収機  17:00着陸 

SF25C JA2330 ファルケ     09Flt.2h55min  
17E   JA2342 タイフーン    04Flt.1h40min  
合計                    13Flt.4h35min

    << 戻る || ホームページ || 最新の掲示板へ